Sao Joaquim, Brazil
Current Conditions -  °F | °C
As of 9:00 AM on Saturday 25 Oct 2014 (Local Time) from SBCM Reporting Station
Broken Clouds Broken Clouds  
Wind Chill: 70°   Ceiling: 1000
Heat Index: 70°   Visibility: 4mi
Dew Point: 66°   Wind: 6mph
Humidity: 88%   Direction: 240°WSW
Pressure: 29.94"   Gusts: NA
Location:  28.29°S, 49.95°W
Report Text: SBCM 251100Z 24005KT 6000 SCT007 BKN010 21/19 Q1014
Loading
Personal Weather Stations






























Interactive Weather Map
Tropical Storm Tracking
New forecast layout! Learn more

10-Day Weather Forecast

Advertisements
Track Severe Weather on mobile